Terminal Aerodrome Forecast
Issued by NWS

Home | Current Version | Previous Version | Text Only | Print | Product List | Glossary On
Versions: 1 2 3 4 5 6 7 8 9 10 11 12 13 14 15 16
000
FTUS45 KFGZ 012300
TAFSEZ
TAF
KSEZ 012337Z 0200/0224 06006KT P6SM VCTS SCT080CB BKN120
      TEMPO 0200/0203 VRB15G25KT 5SM -TSRA BKN080CB
     FM020330 04005KT P6SM FEW080 BKN150
     FM021800 VRB06KT P6SM SCT080 SCT120 PROB30 0220/0224 VRB15G25KT
      5SM -TSRA BKN080CB=

USA.gov is the U.S. government's official web portal to all federal, state and local government web resources and services.